sensor_id;sensor_type;location;lat;lon;timestamp;temperature;humidity
68387;DHT22;55338;43.062;25.624;2022-10-16T00:01:46;7.40;99.90
68387;DHT22;55338;43.062;25.624;2022-10-16T00:04:12;7.40;99.90
68387;DHT22;55338;43.062;25.624;2022-10-16T00:06:38;7.40;99.90
68387;DHT22;55338;43.062;25.624;2022-10-16T00:09:05;7.20;99.90
68387;DHT22;55338;43.062;25.624;2022-10-16T00:11:36;7.20;99.90
68387;DHT22;55338;43.062;25.624;2022-10-16T00:14:06;7.20;99.90
68387;DHT22;55338;43.062;25.624;2022-10-16T00:16:32;7.20;99.90
68387;DHT22;55338;43.062;25.624;2022-10-16T00:18:59;7.10;99.90
68387;DHT22;55338;43.062;25.624;2022-10-16T00:21:27;7.10;99.90
68387;DHT22;55338;43.062;25.624;2022-10-16T00:23:55;7.10;99.90
68387;DHT22;55338;43.062;25.624;2022-10-16T00:26:22;7.10;99.90
68387;DHT22;55338;43.062;25.624;2022-10-16T00:28:50;7.10;99.90
68387;DHT22;55338;43.062;25.624;2022-10-16T00:31:18;7.00;99.90
68387;DHT22;55338;43.062;25.624;2022-10-16T00:33:44;7.00;99.90
68387;DHT22;55338;43.062;25.624;2022-10-16T00:36:12;7.00;99.90
68387;DHT22;55338;43.062;25.624;2022-10-16T00:38:39;7.00;99.90
68387;DHT22;55338;43.062;25.624;2022-10-16T00:41:06;7.00;99.90
68387;DHT22;55338;43.062;25.624;2022-10-16T00:43:48;6.90;99.90
68387;DHT22;55338;43.062;25.624;2022-10-16T00:46:23;6.90;99.90
68387;DHT22;55338;43.062;25.624;2022-10-16T00:51:40;6.80;99.90
68387;DHT22;55338;43.062;25.624;2022-10-16T00:54:19;6.80;99.90
68387;DHT22;55338;43.062;25.624;2022-10-16T00:56:47;6.80;99.90
68387;DHT22;55338;43.062;25.624;2022-10-16T00:59:28;6.80;99.90
68387;DHT22;55338;43.062;25.624;2022-10-16T01:01:55;6.80;99.90
68387;DHT22;55338;43.062;25.624;2022-10-16T01:04:23;6.80;99.90
68387;DHT22;55338;43.062;25.624;2022-10-16T01:15:44;6.70;99.90
68387;DHT22;55338;43.062;25.624;2022-10-16T01:20:29;6.60;99.90
68387;DHT22;55338;43.062;25.624;2022-10-16T01:25:59;6.50;99.90
68387;DHT22;55338;43.062;25.624;2022-10-16T01:31:16;6.40;99.90
68387;DHT22;55338;43.062;25.624;2022-10-16T01:33:46;6.40;99.90
68387;DHT22;55338;43.062;25.624;2022-10-16T01:36:21;6.40;99.90
68387;DHT22;55338;43.062;25.624;2022-10-16T01:38:50;6.40;99.90
68387;DHT22;55338;43.062;25.624;2022-10-16T01:41:34;6.40;99.90
68387;DHT22;55338;43.062;25.624;2022-10-16T01:44:14;6.30;99.90
68387;DHT22;55338;43.062;25.624;2022-10-16T01:46:43;6.30;99.90
68387;DHT22;55338;43.062;25.624;2022-10-16T01:49:12;6.20;99.90
68387;DHT22;55338;43.062;25.624;2022-10-16T01:51:39;6.20;99.90
68387;DHT22;55338;43.062;25.624;2022-10-16T01:54:07;6.20;99.90
68387;DHT22;55338;43.062;25.624;2022-10-16T01:56:34;6.20;99.90
68387;DHT22;55338;43.062;25.624;2022-10-16T01:59:11;6.20;99.90
68387;DHT22;55338;43.062;25.624;2022-10-16T02:01:40;6.20;99.90
68387;DHT22;55338;43.062;25.624;2022-10-16T02:04:18;6.10;99.90
68387;DHT22;55338;43.062;25.624;2022-10-16T02:06:46;6.10;99.90
68387;DHT22;55338;43.062;25.624;2022-10-16T02:09:12;6.00;99.90
68387;DHT22;55338;43.062;25.624;2022-10-16T02:11:38;6.00;99.90
68387;DHT22;55338;43.062;25.624;2022-10-16T02:14:05;6.00;99.90
68387;DHT22;55338;43.062;25.624;2022-10-16T02:16:40;6.00;99.90
68387;DHT22;55338;43.062;25.624;2022-10-16T02:19:07;6.00;99.90
68387;DHT22;55338;43.062;25.624;2022-10-16T02:29:16;6.00;99.90
68387;DHT22;55338;43.062;25.624;2022-10-16T02:31:46;6.00;99.90
68387;DHT22;55338;43.062;25.624;2022-10-16T02:34:16;6.00;99.90
68387;DHT22;55338;43.062;25.624;2022-10-16T02:36:42;6.00;99.90
68387;DHT22;55338;43.062;25.624;2022-10-16T02:39:10;6.00;99.90
68387;DHT22;55338;43.062;25.624;2022-10-16T02:41:36;6.00;99.90
68387;DHT22;55338;43.062;25.624;2022-10-16T02:44:02;6.00;99.90
68387;DHT22;55338;43.062;25.624;2022-10-16T02:46:27;6.00;99.90
68387;DHT22;55338;43.062;25.624;2022-10-16T02:48:53;5.90;99.90
68387;DHT22;55338;43.062;25.624;2022-10-16T02:51:19;5.90;99.90
68387;DHT22;55338;43.062;25.624;2022-10-16T02:53:45;5.80;99.90
68387;DHT22;55338;43.062;25.624;2022-10-16T02:56:10;5.80;99.90
68387;DHT22;55338;43.062;25.624;2022-10-16T02:58:36;5.70;99.90
68387;DHT22;55338;43.062;25.624;2022-10-16T03:01:02;5.70;99.90
68387;DHT22;55338;43.062;25.624;2022-10-16T03:03:28;5.70;99.90
68387;DHT22;55338;43.062;25.624;2022-10-16T03:05:53;5.70;99.90
68387;DHT22;55338;43.062;25.624;2022-10-16T03:08:19;5.70;99.90
68387;DHT22;55338;43.062;25.624;2022-10-16T03:10:49;5.70;99.90
68387;DHT22;55338;43.062;25.624;2022-10-16T03:13:15;5.60;99.90
68387;DHT22;55338;43.062;25.624;2022-10-16T03:15:41;5.60;99.90
68387;DHT22;55338;43.062;25.624;2022-10-16T03:18:07;5.60;99.90
68387;DHT22;55338;43.062;25.624;2022-10-16T03:20:32;5.60;99.90
68387;DHT22;55338;43.062;25.624;2022-10-16T03:22:58;5.60;99.90
68387;DHT22;55338;43.062;25.624;2022-10-16T03:25:24;5.50;99.90
68387;DHT22;55338;43.062;25.624;2022-10-16T03:27:50;5.50;99.90
68387;DHT22;55338;43.062;25.624;2022-10-16T03:30:16;5.40;99.90
68387;DHT22;55338;43.062;25.624;2022-10-16T03:32:43;5.40;99.90
68387;DHT22;55338;43.062;25.624;2022-10-16T03:35:09;5.40;99.90
68387;DHT22;55338;43.062;25.624;2022-10-16T03:37:34;5.30;99.90
68387;DHT22;55338;43.062;25.624;2022-10-16T03:40:00;5.40;99.90
68387;DHT22;55338;43.062;25.624;2022-10-16T03:42:26;5.40;99.90
68387;DHT22;55338;43.062;25.624;2022-10-16T03:44:52;5.40;99.90
68387;DHT22;55338;43.062;25.624;2022-10-16T03:47:18;5.50;99.90
68387;DHT22;55338;43.062;25.624;2022-10-16T03:49:47;5.50;99.90
68387;DHT22;55338;43.062;25.624;2022-10-16T03:52:13;5.60;99.90
68387;DHT22;55338;43.062;25.624;2022-10-16T03:54:39;5.50;99.90
68387;DHT22;55338;43.062;25.624;2022-10-16T03:57:05;5.40;99.90
68387;DHT22;55338;43.062;25.624;2022-10-16T03:59:31;5.40;99.90
68387;DHT22;55338;43.062;25.624;2022-10-16T04:01:56;5.40;99.90
68387;DHT22;55338;43.062;25.624;2022-10-16T04:04:22;5.40;99.90
68387;DHT22;55338;43.062;25.624;2022-10-16T04:06:48;5.50;99.90
68387;DHT22;55338;43.062;25.624;2022-10-16T04:09:14;5.50;99.90
68387;DHT22;55338;43.062;25.624;2022-10-16T04:11:39;5.50;99.90
68387;DHT22;55338;43.062;25.624;2022-10-16T04:14:05;5.50;99.90
68387;DHT22;55338;43.062;25.624;2022-10-16T04:16:31;5.50;99.90
68387;DHT22;55338;43.062;25.624;2022-10-16T04:18:57;5.50;99.90
68387;DHT22;55338;43.062;25.624;2022-10-16T04:21:22;5.50;99.90
68387;DHT22;55338;43.062;25.624;2022-10-16T04:23:48;5.50;99.90
68387;DHT22;55338;43.062;25.624;2022-10-16T04:26:14;5.50;99.90
68387;DHT22;55338;43.062;25.624;2022-10-16T04:28:40;5.60;99.90
68387;DHT22;55338;43.062;25.624;2022-10-16T04:31:06;5.60;99.90
68387;DHT22;55338;43.062;25.624;2022-10-16T04:33:33;5.60;99.90
68387;DHT22;55338;43.062;25.624;2022-10-16T04:36:00;5.60;99.90
68387;DHT22;55338;43.062;25.624;2022-10-16T04:38:26;5.50;99.90
68387;DHT22;55338;43.062;25.624;2022-10-16T04:40:52;5.50;99.90
68387;DHT22;55338;43.062;25.624;2022-10-16T04:43:18;5.50;99.90
68387;DHT22;55338;43.062;25.624;2022-10-16T04:45:44;5.50;99.90
68387;DHT22;55338;43.062;25.624;2022-10-16T04:48:10;5.60;99.90
68387;DHT22;55338;43.062;25.624;2022-10-16T04:50:36;5.60;99.90
68387;DHT22;55338;43.062;25.624;2022-10-16T04:53:02;5.60;99.90
68387;DHT22;55338;43.062;25.624;2022-10-16T04:55:27;5.60;99.90
68387;DHT22;55338;43.062;25.624;2022-10-16T04:57:53;5.60;99.90
68387;DHT22;55338;43.062;25.624;2022-10-16T05:00:19;5.60;99.90
68387;DHT22;55338;43.062;25.624;2022-10-16T05:02:45;5.60;99.90
68387;DHT22;55338;43.062;25.624;2022-10-16T05:05:10;5.70;99.90
68387;DHT22;55338;43.062;25.624;2022-10-16T05:07:37;5.70;99.90
68387;DHT22;55338;43.062;25.624;2022-10-16T05:10:03;5.80;99.90
68387;DHT22;55338;43.062;25.624;2022-10-16T05:12:29;5.90;99.90
68387;DHT22;55338;43.062;25.624;2022-10-16T05:14:55;5.90;99.90
68387;DHT22;55338;43.062;25.624;2022-10-16T05:17:24;5.90;99.90
68387;DHT22;55338;43.062;25.624;2022-10-16T05:19:51;6.00;99.90
68387;DHT22;55338;43.062;25.624;2022-10-16T05:22:16;6.10;99.90
68387;DHT22;55338;43.062;25.624;2022-10-16T05:24:42;6.10;99.90
68387;DHT22;55338;43.062;25.624;2022-10-16T05:27:08;6.20;99.90
68387;DHT22;55338;43.062;25.624;2022-10-16T05:29:34;6.40;99.90
68387;DHT22;55338;43.062;25.624;2022-10-16T05:32:00;6.40;99.90
68387;DHT22;55338;43.062;25.624;2022-10-16T05:34:26;6.60;99.90
68387;DHT22;55338;43.062;25.624;2022-10-16T05:36:52;6.70;99.90
68387;DHT22;55338;43.062;25.624;2022-10-16T05:39:18;6.80;99.90
68387;DHT22;55338;43.062;25.624;2022-10-16T05:41:44;6.90;99.90
68387;DHT22;55338;43.062;25.624;2022-10-16T05:44:10;7.00;99.90
68387;DHT22;55338;43.062;25.624;2022-10-16T05:46:36;7.20;99.90
68387;DHT22;55338;43.062;25.624;2022-10-16T05:49:02;7.40;99.90
68387;DHT22;55338;43.062;25.624;2022-10-16T05:51:27;7.60;99.90
68387;DHT22;55338;43.062;25.624;2022-10-16T05:53:53;7.80;99.90
68387;DHT22;55338;43.062;25.624;2022-10-16T05:56:19;8.00;99.20
68387;DHT22;55338;43.062;25.624;2022-10-16T05:58:45;8.20;98.70
68387;DHT22;55338;43.062;25.624;2022-10-16T06:03:38;8.50;97.70
68387;DHT22;55338;43.062;25.624;2022-10-16T06:06:11;8.60;97.50
68387;DHT22;55338;43.062;25.624;2022-10-16T06:08:38;8.80;96.10
68387;DHT22;55338;43.062;25.624;2022-10-16T06:11:06;9.10;96.50
68387;DHT22;55338;43.062;25.624;2022-10-16T06:13:32;9.30;95.20
68387;DHT22;55338;43.062;25.624;2022-10-16T06:15:59;9.70;94.20
68387;DHT22;55338;43.062;25.624;2022-10-16T06:18:26;10.10;92.80
68387;DHT22;55338;43.062;25.624;2022-10-16T06:20:52;10.50;90.90
68387;DHT22;55338;43.062;25.624;2022-10-16T06:23:18;10.60;89.80
68387;DHT22;55338;43.062;25.624;2022-10-16T06:25:43;10.90;89.10
68387;DHT22;55338;43.062;25.624;2022-10-16T06:28:09;11.10;88.10
68387;DHT22;55338;43.062;25.624;2022-10-16T06:30:35;11.20;87.70
68387;DHT22;55338;43.062;25.624;2022-10-16T06:33:01;11.70;85.80
68387;DHT22;55338;43.062;25.624;2022-10-16T06:35:26;11.80;85.20
68387;DHT22;55338;43.062;25.624;2022-10-16T06:37:53;11.90;84.30
68387;DHT22;55338;43.062;25.624;2022-10-16T06:40:19;12.00;85.20
68387;DHT22;55338;43.062;25.624;2022-10-16T06:42:44;12.40;83.50
68387;DHT22;55338;43.062;25.624;2022-10-16T06:45:10;12.50;82.00
68387;DHT22;55338;43.062;25.624;2022-10-16T06:47:36;12.50;82.10
68387;DHT22;55338;43.062;25.624;2022-10-16T06:50:03;12.70;82.40
68387;DHT22;55338;43.062;25.624;2022-10-16T06:52:29;13.00;81.00
68387;DHT22;55338;43.062;25.624;2022-10-16T06:54:54;13.40;80.60
68387;DHT22;55338;43.062;25.624;2022-10-16T06:57:20;13.90;79.40
68387;DHT22;55338;43.062;25.624;2022-10-16T06:59:46;14.40;78.00
68387;DHT22;55338;43.062;25.624;2022-10-16T07:02:12;14.80;76.30
68387;DHT22;55338;43.062;25.624;2022-10-16T07:04:37;15.40;74.30
68387;DHT22;55338;43.062;25.624;2022-10-16T07:07:03;15.60;73.20
68387;DHT22;55338;43.062;25.624;2022-10-16T07:09:29;15.50;73.40
68387;DHT22;55338;43.062;25.624;2022-10-16T07:11:54;15.10;74.90
68387;DHT22;55338;43.062;25.624;2022-10-16T07:14:21;15.20;74.30
68387;DHT22;55338;43.062;25.624;2022-10-16T07:16:47;15.30;73.60
68387;DHT22;55338;43.062;25.624;2022-10-16T07:19:14;15.50;73.20
68387;DHT22;55338;43.062;25.624;2022-10-16T07:21:41;15.50;72.80
68387;DHT22;55338;43.062;25.624;2022-10-16T07:24:12;16.00;72.70
68387;DHT22;55338;43.062;25.624;2022-10-16T07:26:39;16.20;71.00
68387;DHT22;55338;43.062;25.624;2022-10-16T07:29:07;16.50;70.80
68387;DHT22;55338;43.062;25.624;2022-10-16T07:31:33;17.00;69.10
68387;DHT22;55338;43.062;25.624;2022-10-16T07:33:59;17.50;67.60
68387;DHT22;55338;43.062;25.624;2022-10-16T07:36:25;18.00;66.00
68387;DHT22;55338;43.062;25.624;2022-10-16T07:38:51;18.50;64.90
68387;DHT22;55338;43.062;25.624;2022-10-16T07:41:18;18.60;63.80
68387;DHT22;55338;43.062;25.624;2022-10-16T07:43:49;18.90;62.80
68387;DHT22;55338;43.062;25.624;2022-10-16T07:46:16;19.50;61.40
68387;DHT22;55338;43.062;25.624;2022-10-16T07:48:42;19.90;60.40
68387;DHT22;55338;43.062;25.624;2022-10-16T07:51:12;20.40;58.50
68387;DHT22;55338;43.062;25.624;2022-10-16T07:53:38;20.50;57.90
68387;DHT22;55338;43.062;25.624;2022-10-16T07:56:05;20.70;57.10
68387;DHT22;55338;43.062;25.624;2022-10-16T07:58:32;20.70;57.30
68387;DHT22;55338;43.062;25.624;2022-10-16T08:00:58;20.50;57.20
68387;DHT22;55338;43.062;25.624;2022-10-16T08:03:25;20.60;57.60
68387;DHT22;55338;43.062;25.624;2022-10-16T08:05:51;20.50;57.40
68387;DHT22;55338;43.062;25.624;2022-10-16T08:08:17;20.50;57.80
68387;DHT22;55338;43.062;25.624;2022-10-16T08:10:44;20.40;57.00
68387;DHT22;55338;43.062;25.624;2022-10-16T08:13:10;20.50;58.80
68387;DHT22;55338;43.062;25.624;2022-10-16T08:15:36;20.70;57.40
68387;DHT22;55338;43.062;25.624;2022-10-16T08:18:04;20.80;57.60
68387;DHT22;55338;43.062;25.624;2022-10-16T08:20:31;20.80;57.00
68387;DHT22;55338;43.062;25.624;2022-10-16T08:22:57;20.90;57.10
68387;DHT22;55338;43.062;25.624;2022-10-16T08:25:24;21.40;55.40
68387;DHT22;55338;43.062;25.624;2022-10-16T08:27:50;21.50;55.50
68387;DHT22;55338;43.062;25.624;2022-10-16T08:30:19;21.40;55.00
68387;DHT22;55338;43.062;25.624;2022-10-16T08:32:44;21.80;54.10
68387;DHT22;55338;43.062;25.624;2022-10-16T08:35:11;21.60;54.20
68387;DHT22;55338;43.062;25.624;2022-10-16T08:37:38;21.90;53.20
68387;DHT22;55338;43.062;25.624;2022-10-16T08:40:06;22.40;50.70
68387;DHT22;55338;43.062;25.624;2022-10-16T08:48:05;22.60;49.40
68387;DHT22;55338;43.062;25.624;2022-10-16T08:50:37;22.60;48.30
68387;DHT22;55338;43.062;25.624;2022-10-16T08:53:04;22.00;49.00
68387;DHT22;55338;43.062;25.624;2022-10-16T08:55:45;21.70;50.70
68387;DHT22;55338;43.062;25.624;2022-10-16T08:58:30;22.10;49.90
68387;DHT22;55338;43.062;25.624;2022-10-16T09:01:02;22.50;48.90
68387;DHT22;55338;43.062;25.624;2022-10-16T09:06:47;21.70;49.70
68387;DHT22;55338;43.062;25.624;2022-10-16T09:12:25;22.10;49.00
68387;DHT22;55338;43.062;25.624;2022-10-16T09:15:07;22.10;47.90
68387;DHT22;55338;43.062;25.624;2022-10-16T09:18:05;22.70;46.80
68387;DHT22;55338;43.062;25.624;2022-10-16T09:20:49;23.60;46.10
68387;DHT22;55338;43.062;25.624;2022-10-16T09:23:27;24.10;42.30
68387;DHT22;55338;43.062;25.624;2022-10-16T09:25:54;24.40;41.50
68387;DHT22;55338;43.062;25.624;2022-10-16T09:28:20;24.80;40.90
68387;DHT22;55338;43.062;25.624;2022-10-16T09:30:47;24.80;38.90
68387;DHT22;55338;43.062;25.624;2022-10-16T09:33:28;25.20;38.40
68387;DHT22;55338;43.062;25.624;2022-10-16T09:35:56;25.70;37.00
68387;DHT22;55338;43.062;25.624;2022-10-16T09:38:35;25.70;36.80
68387;DHT22;55338;43.062;25.624;2022-10-16T09:41:22;26.00;35.80
68387;DHT22;55338;43.062;25.624;2022-10-16T09:43:56;25.80;35.40
68387;DHT22;55338;43.062;25.624;2022-10-16T09:46:29;26.00;35.30
68387;DHT22;55338;43.062;25.624;2022-10-16T09:49:00;26.80;34.40
68387;DHT22;55338;43.062;25.624;2022-10-16T09:51:32;27.00;34.10
68387;DHT22;55338;43.062;25.624;2022-10-16T09:56:34;27.00;32.60
68387;DHT22;55338;43.062;25.624;2022-10-16T09:59:22;26.90;31.90
68387;DHT22;55338;43.062;25.624;2022-10-16T10:01:54;26.30;32.60
68387;DHT22;55338;43.062;25.624;2022-10-16T10:04:23;26.20;33.00
68387;DHT22;55338;43.062;25.624;2022-10-16T10:06:53;26.30;33.30
68387;DHT22;55338;43.062;25.624;2022-10-16T10:09:23;26.70;32.00
68387;DHT22;55338;43.062;25.624;2022-10-16T10:11:57;26.40;32.20
68387;DHT22;55338;43.062;25.624;2022-10-16T10:17:16;26.40;33.10
68387;DHT22;55338;43.062;25.624;2022-10-16T10:22:29;26.90;31.20
68387;DHT22;55338;43.062;25.624;2022-10-16T10:24:56;27.00;32.30
68387;DHT22;55338;43.062;25.624;2022-10-16T10:27:32;26.80;31.60
68387;DHT22;55338;43.062;25.624;2022-10-16T10:33:12;27.60;31.40
68387;DHT22;55338;43.062;25.624;2022-10-16T10:39:02;27.70;31.20
68387;DHT22;55338;43.062;25.624;2022-10-16T10:41:46;27.60;30.60
68387;DHT22;55338;43.062;25.624;2022-10-16T10:50:11;27.30;31.00
68387;DHT22;55338;43.062;25.624;2022-10-16T10:55:39;27.80;29.60
68387;DHT22;55338;43.062;25.624;2022-10-16T11:06:08;28.50;29.20
68387;DHT22;55338;43.062;25.624;2022-10-16T11:08:48;28.50;28.00
68387;DHT22;55338;43.062;25.624;2022-10-16T11:11:23;28.60;27.80
68387;DHT22;55338;43.062;25.624;2022-10-16T11:16:28;28.70;28.10
68387;DHT22;55338;43.062;25.624;2022-10-16T11:21:59;29.00;26.90
68387;DHT22;55338;43.062;25.624;2022-10-16T11:25:44;28.90;27.40
68387;DHT22;55338;43.062;25.624;2022-10-16T11:27:49;29.00;27.90
68387;DHT22;55338;43.062;25.624;2022-10-16T11:30:26;29.10;27.70
68387;DHT22;55338;43.062;25.624;2022-10-16T11:33:00;29.10;28.20
68387;DHT22;55338;43.062;25.624;2022-10-16T11:35:48;29.20;28.90
68387;DHT22;55338;43.062;25.624;2022-10-16T11:41:42;28.50;28.70
68387;DHT22;55338;43.062;25.624;2022-10-16T11:49:32;28.40;29.10
68387;DHT22;55338;43.062;25.624;2022-10-16T11:52:23;28.50;28.00
68387;DHT22;55338;43.062;25.624;2022-10-16T11:54:56;28.10;29.50
68387;DHT22;55338;43.062;25.624;2022-10-16T11:57:29;28.00;29.70
68387;DHT22;55338;43.062;25.624;2022-10-16T12:05:49;28.60;29.10
68387;DHT22;55338;43.062;25.624;2022-10-16T12:08:18;28.80;27.80
68387;DHT22;55338;43.062;25.624;2022-10-16T12:10:46;28.60;28.10
68387;DHT22;55338;43.062;25.624;2022-10-16T12:13:28;29.00;29.40
68387;DHT22;55338;43.062;25.624;2022-10-16T12:16:24;29.30;27.60
68387;DHT22;55338;43.062;25.624;2022-10-16T12:18:50;29.00;28.60
68387;DHT22;55338;43.062;25.624;2022-10-16T12:21:31;29.20;27.80
68387;DHT22;55338;43.062;25.624;2022-10-16T12:23:58;29.10;27.80
68387;DHT22;55338;43.062;25.624;2022-10-16T12:26:31;28.80;28.10
68387;DHT22;55338;43.062;25.624;2022-10-16T12:31:43;28.70;28.00
68387;DHT22;55338;43.062;25.624;2022-10-16T12:34:41;28.70;28.80
68387;DHT22;55338;43.062;25.624;2022-10-16T12:39:39;28.50;28.90
68387;DHT22;55338;43.062;25.624;2022-10-16T12:42:30;28.40;28.60
68387;DHT22;55338;43.062;25.624;2022-10-16T12:44:56;28.20;29.40
68387;DHT22;55338;43.062;25.624;2022-10-16T12:50:25;27.60;30.10
68387;DHT22;55338;43.062;25.624;2022-10-16T12:52:51;27.70;29.90
68387;DHT22;55338;43.062;25.624;2022-10-16T12:55:19;27.90;29.10
68387;DHT22;55338;43.062;25.624;2022-10-16T13:00:28;28.50;27.70
68387;DHT22;55338;43.062;25.624;2022-10-16T13:17:21;28.50;27.60
68387;DHT22;55338;43.062;25.624;2022-10-16T13:22:58;29.00;27.10
68387;DHT22;55338;43.062;25.624;2022-10-16T13:26:14;29.20;26.80
68387;DHT22;55338;43.062;25.624;2022-10-16T13:28:42;29.20;26.20
68387;DHT22;55338;43.062;25.624;2022-10-16T13:31:19;28.90;26.20
68387;DHT22;55338;43.062;25.624;2022-10-16T13:33:48;29.50;26.30
68387;DHT22;55338;43.062;25.624;2022-10-16T13:36:24;29.80;26.40
68387;DHT22;55338;43.062;25.624;2022-10-16T13:41:38;29.80;25.50
68387;DHT22;55338;43.062;25.624;2022-10-16T13:44:05;29.00;26.60
68387;DHT22;55338;43.062;25.624;2022-10-16T13:46:34;29.00;26.90
68387;DHT22;55338;43.062;25.624;2022-10-16T13:49:05;29.10;26.20
68387;DHT22;55338;43.062;25.624;2022-10-16T13:51:32;29.30;25.90
68387;DHT22;55338;43.062;25.624;2022-10-16T13:53:59;29.30;25.90
68387;DHT22;55338;43.062;25.624;2022-10-16T13:56:27;29.40;25.00
68387;DHT22;55338;43.062;25.624;2022-10-16T13:59:01;29.30;24.70
68387;DHT22;55338;43.062;25.624;2022-10-16T14:01:30;29.10;25.50
68387;DHT22;55338;43.062;25.624;2022-10-16T14:04:04;28.90;25.10
68387;DHT22;55338;43.062;25.624;2022-10-16T14:06:31;28.90;25.30
68387;DHT22;55338;43.062;25.624;2022-10-16T14:09:06;29.00;26.00
68387;DHT22;55338;43.062;25.624;2022-10-16T14:11:34;29.40;24.10
68387;DHT22;55338;43.062;25.624;2022-10-16T14:14:02;29.60;24.10
68387;DHT22;55338;43.062;25.624;2022-10-16T14:16:30;30.10;25.00
68387;DHT22;55338;43.062;25.624;2022-10-16T14:18:59;29.90;25.00
68387;DHT22;55338;43.062;25.624;2022-10-16T14:21:26;29.00;27.50
68387;DHT22;55338;43.062;25.624;2022-10-16T14:23:53;27.30;28.80
68387;DHT22;55338;43.062;25.624;2022-10-16T14:26:23;25.70;32.80
68387;DHT22;55338;43.062;25.624;2022-10-16T14:29:03;24.70;36.40
68387;DHT22;55338;43.062;25.624;2022-10-16T14:31:33;23.80;38.40
68387;DHT22;55338;43.062;25.624;2022-10-16T14:34:01;23.20;39.40
68387;DHT22;55338;43.062;25.624;2022-10-16T14:36:27;22.60;42.00
68387;DHT22;55338;43.062;25.624;2022-10-16T14:39:02;22.00;41.20
68387;DHT22;55338;43.062;25.624;2022-10-16T14:41:30;21.40;44.30
68387;DHT22;55338;43.062;25.624;2022-10-16T14:44:02;20.90;45.50
68387;DHT22;55338;43.062;25.624;2022-10-16T14:46:41;20.50;46.80
68387;DHT22;55338;43.062;25.624;2022-10-16T14:49:20;20.20;47.80
68387;DHT22;55338;43.062;25.624;2022-10-16T14:51:47;19.80;49.00
68387;DHT22;55338;43.062;25.624;2022-10-16T14:54:17;19.40;49.80
68387;DHT22;55338;43.062;25.624;2022-10-16T14:56:51;18.90;51.00
68387;DHT22;55338;43.062;25.624;2022-10-16T14:59:32;18.70;52.80
68387;DHT22;55338;43.062;25.624;2022-10-16T15:01:59;18.30;53.50
68387;DHT22;55338;43.062;25.624;2022-10-16T15:04:24;18.00;53.70
68387;DHT22;55338;43.062;25.624;2022-10-16T15:06:50;17.80;53.80
68387;DHT22;55338;43.062;25.624;2022-10-16T15:09:16;17.70;55.00
68387;DHT22;55338;43.062;25.624;2022-10-16T15:11:42;17.50;55.70
68387;DHT22;55338;43.062;25.624;2022-10-16T15:14:12;17.40;56.40
68387;DHT22;55338;43.062;25.624;2022-10-16T15:16:38;17.30;56.90
68387;DHT22;55338;43.062;25.624;2022-10-16T15:19:04;17.10;58.10
68387;DHT22;55338;43.062;25.624;2022-10-16T15:21:32;17.00;58.50
68387;DHT22;55338;43.062;25.624;2022-10-16T15:23:59;16.90;59.50
68387;DHT22;55338;43.062;25.624;2022-10-16T15:26:26;16.70;61.40
68387;DHT22;55338;43.062;25.624;2022-10-16T15:28:52;16.60;63.00
68387;DHT22;55338;43.062;25.624;2022-10-16T15:31:19;16.40;63.10
68387;DHT22;55338;43.062;25.624;2022-10-16T15:33:45;16.30;64.10
68387;DHT22;55338;43.062;25.624;2022-10-16T15:36:23;16.10;66.20
68387;DHT22;55338;43.062;25.624;2022-10-16T15:38:49;15.90;70.20
68387;DHT22;55338;43.062;25.624;2022-10-16T15:41:15;15.80;70.90
68387;DHT22;55338;43.062;25.624;2022-10-16T15:43:40;15.60;72.40
68387;DHT22;55338;43.062;25.624;2022-10-16T15:46:11;15.50;73.20
68387;DHT22;55338;43.062;25.624;2022-10-16T15:48:37;15.30;73.70
68387;DHT22;55338;43.062;25.624;2022-10-16T15:51:07;15.20;74.50
68387;DHT22;55338;43.062;25.624;2022-10-16T15:53:33;15.00;75.20
68387;DHT22;55338;43.062;25.624;2022-10-16T15:56:07;14.80;75.20
68387;DHT22;55338;43.062;25.624;2022-10-16T15:58:33;14.70;76.30
68387;DHT22;55338;43.062;25.624;2022-10-16T16:01:01;14.50;77.60
68387;DHT22;55338;43.062;25.624;2022-10-16T16:03:28;14.40;78.20
68387;DHT22;55338;43.062;25.624;2022-10-16T16:05:54;14.20;78.80
68387;DHT22;55338;43.062;25.624;2022-10-16T16:08:20;14.10;79.50
68387;DHT22;55338;43.062;25.624;2022-10-16T16:11:06;14.00;79.70
68387;DHT22;55338;43.062;25.624;2022-10-16T16:13:33;13.90;79.70
68387;DHT22;55338;43.062;25.624;2022-10-16T16:15:59;13.70;80.40
68387;DHT22;55338;43.062;25.624;2022-10-16T16:18:25;13.60;80.90
68387;DHT22;55338;43.062;25.624;2022-10-16T16:20:51;13.50;80.90
68387;DHT22;55338;43.062;25.624;2022-10-16T16:23:17;13.40;81.80
68387;DHT22;55338;43.062;25.624;2022-10-16T16:25:44;13.30;82.10
68387;DHT22;55338;43.062;25.624;2022-10-16T16:28:10;13.30;82.30
68387;DHT22;55338;43.062;25.624;2022-10-16T16:30:40;13.20;82.30
68387;DHT22;55338;43.062;25.624;2022-10-16T16:33:06;13.00;83.10
68387;DHT22;55338;43.062;25.624;2022-10-16T16:35:32;12.90;83.50
68387;DHT22;55338;43.062;25.624;2022-10-16T16:37:58;12.80;84.00
68387;DHT22;55338;43.062;25.624;2022-10-16T16:40:23;12.70;84.30
68387;DHT22;55338;43.062;25.624;2022-10-16T16:42:49;12.60;84.30
68387;DHT22;55338;43.062;25.624;2022-10-16T16:45:15;12.50;84.70
68387;DHT22;55338;43.062;25.624;2022-10-16T16:47:41;12.40;84.90
68387;DHT22;55338;43.062;25.624;2022-10-16T16:50:07;12.30;85.00
68387;DHT22;55338;43.062;25.624;2022-10-16T16:52:34;12.30;85.50
68387;DHT22;55338;43.062;25.624;2022-10-16T16:55:00;12.30;85.80
68387;DHT22;55338;43.062;25.624;2022-10-16T16:57:26;12.20;86.00
68387;DHT22;55338;43.062;25.624;2022-10-16T16:59:52;12.10;85.90
68387;DHT22;55338;43.062;25.624;2022-10-16T17:02:18;12.10;86.10
68387;DHT22;55338;43.062;25.624;2022-10-16T17:04:43;12.00;86.50
68387;DHT22;55338;43.062;25.624;2022-10-16T17:07:09;11.90;87.10
68387;DHT22;55338;43.062;25.624;2022-10-16T17:09:35;11.70;87.60
68387;DHT22;55338;43.062;25.624;2022-10-16T17:12:01;11.70;87.70
68387;DHT22;55338;43.062;25.624;2022-10-16T17:14:26;11.60;88.10
68387;DHT22;55338;43.062;25.624;2022-10-16T17:16:52;11.50;88.80
68387;DHT22;55338;43.062;25.624;2022-10-16T17:19:19;11.40;89.00
68387;DHT22;55338;43.062;25.624;2022-10-16T17:21:48;11.30;89.50
68387;DHT22;55338;43.062;25.624;2022-10-16T17:24:14;11.20;89.70
68387;DHT22;55338;43.062;25.624;2022-10-16T17:26:41;11.10;90.00
68387;DHT22;55338;43.062;25.624;2022-10-16T17:29:11;11.00;90.10
68387;DHT22;55338;43.062;25.624;2022-10-16T17:31:37;10.90;90.70
68387;DHT22;55338;43.062;25.624;2022-10-16T17:34:05;10.80;90.90
68387;DHT22;55338;43.062;25.624;2022-10-16T17:36:34;10.80;91.40
68387;DHT22;55338;43.062;25.624;2022-10-16T17:39:02;10.70;91.70